Time;durP1;ratioP1;P1;durP2;ratioP2;P2;SDS_P1;SDS_P2;PMS_P1;PMS_P2;Temp;Humidity;BMP_temperature;BMP_pressure;BME280_temperature;BME280_humidity;BME280_pressure;Samples;Min_cycle;Max_cycle;Signal;HPM_P1;HPM_P2
2023/06/10 00:01:31;;;;;;;0.90;0.90;;;;;;;;;;6288293;28;20271;-75
2023/06/10 00:04:37;;;;;;;0.82;0.82;;;;;;;;;;6287204;28;20302;-76
2023/06/10 00:07:42;;;;;;;1.30;1.30;;;;;;;;;;6288060;28;20450;-75
2023/06/10 00:10:47;;;;;;;1.20;1.20;;;;;;;;;;6281586;28;20294;-75
2023/06/10 00:13:52;;;;;;;0.90;0.90;;;;;;;;;;6287671;28;20291;-76
2023/06/10 00:16:59;;;;;;;1.00;1.00;;;;;;;;;;6288580;28;20262;-76
2023/06/10 00:20:08;;;;;;;2.55;0.88;;;;;;;;;;6288043;28;20295;-75
2023/06/10 00:23:14;;;;;;;1.00;1.00;;;;;;;;;;6286981;28;20276;-75
2023/06/10 00:26:20;;;;;;;0.82;0.82;;;;;;;;;;6287512;28;20385;-75
2023/06/10 00:29:25;;;;;;;1.00;1.00;;;;;;;;;;6287267;28;20408;-75
2023/06/10 00:32:32;;;;;;;0.90;0.88;;;;;;;;;;6287437;28;20331;-75
2023/06/10 00:35:39;;;;;;;1.30;0.98;;;;;;;;;;6286743;28;20311;-76
2023/06/10 00:38:44;;;;;;;3.42;1.00;;;;;;;;;;6286504;28;20566;-76
2023/06/10 00:41:49;;;;;;;6.93;1.73;;;;;;;;;;6285812;28;20283;-75
2023/06/10 00:44:56;;;;;;;1.40;1.20;;;;;;;;;;6286704;28;20311;-76
2023/06/10 00:48:03;;;;;;;0.70;0.70;;;;;;;;;;6269165;28;20291;-74
2023/06/10 00:51:09;;;;;;;3.08;1.10;;;;;;;;;;6269320;28;20299;-75
2023/06/10 00:54:14;;;;;;;0.90;0.90;;;;;;;;;;6286180;28;20295;-76
2023/06/10 00:57:19;;;;;;;1.00;1.00;;;;;;;;;;6268592;28;20267;-75
2023/06/10 01:00:25;;;;;;;0.90;0.90;;;;;;;;;;6286099;28;20307;-75
2023/06/10 01:03:36;;;;;;;0.88;0.88;;;;;;;;;;6306346;22;20306;-70
2023/06/10 01:06:49;;;;;;;1.10;1.10;;;;;;;;;;6294389;28;20263;-70
2023/06/10 01:09:57;;;;;;;0.93;0.93;;;;;;;;;;6312077;28;20295;-71
2023/06/10 01:13:06;;;;;;;2.63;1.02;;;;;;;;;;6285511;28;20583;-71
2023/06/10 01:16:12;;;;;;;1.38;0.90;;;;;;;;;;6286370;28;20265;-70
2023/06/10 01:19:19;;;;;;;1.10;0.95;;;;;;;;;;6286863;28;20303;-71
2023/06/10 01:22:28;;;;;;;0.80;0.80;;;;;;;;;;6295213;28;20271;-72
2023/06/10 01:25:36;;;;;;;0.90;0.90;;;;;;;;;;6311421;28;20298;-71
2023/06/10 01:28:47;;;;;;;1.10;1.10;;;;;;;;;;6293767;28;20298;-70
2023/06/10 01:31:58;;;;;;;2.92;0.85;;;;;;;;;;6294334;28;20286;-70
2023/06/10 01:35:04;;;;;;;3.00;0.98;;;;;;;;;;6311276;28;20294;-70
2023/06/10 01:38:14;;;;;;;2.63;1.00;;;;;;;;;;6294858;28;20262;-70
2023/06/10 01:41:21;;;;;;;1.10;1.10;;;;;;;;;;6293808;28;20267;-71
2023/06/10 01:44:26;;;;;;;0.90;0.90;;;;;;;;;;6292675;28;20290;-71
2023/06/10 01:47:31;;;;;;;0.98;0.98;;;;;;;;;;6294008;28;20258;-72
2023/06/10 01:50:37;;;;;;;0.88;0.88;;;;;;;;;;6293191;28;20582;-71
2023/06/10 01:53:44;;;;;;;0.90;0.90;;;;;;;;;;6292836;28;20489;-70
2023/06/10 01:56:49;;;;;;;1.00;1.00;;;;;;;;;;6311407;28;20271;-71
2023/06/10 01:59:54;;;;;;;1.00;1.00;;;;;;;;;;6292987;28;20301;-70
2023/06/10 02:02:59;;;;;;;1.00;1.00;;;;;;;;;;6310742;28;20464;-71
2023/06/10 02:06:05;;;;;;;1.08;0.90;;;;;;;;;;6293602;28;20271;-70
2023/06/10 02:09:12;;;;;;;0.85;0.85;;;;;;;;;;6293133;28;20582;-70
2023/06/10 02:12:17;;;;;;;1.45;1.30;;;;;;;;;;6310512;28;20286;-71
2023/06/10 02:15:22;;;;;;;1.08;1.08;;;;;;;;;;6293201;28;20291;-70
2023/06/10 02:18:28;;;;;;;1.00;1.00;;;;;;;;;;6292948;28;20574;-71
2023/06/10 02:21:34;;;;;;;0.95;0.95;;;;;;;;;;6292539;28;20262;-72
2023/06/10 02:24:42;;;;;;;0.85;0.85;;;;;;;;;;6292443;28;20306;-71
2023/06/10 02:27:47;;;;;;;1.00;1.00;;;;;;;;;;6310810;28;20575;-70
2023/06/10 02:30:53;;;;;;;0.90;0.90;;;;;;;;;;6309842;28;20297;-71
2023/06/10 02:33:59;;;;;;;0.90;0.90;;;;;;;;;;6292044;28;20302;-71
2023/06/10 02:37:05;;;;;;;0.80;0.80;;;;;;;;;;6292351;28;20271;-71
2023/06/10 02:40:13;;;;;;;1.10;1.10;;;;;;;;;;6291799;28;20293;-71
2023/06/10 02:43:19;;;;;;;0.80;0.80;;;;;;;;;;6309577;28;20342;-71
2023/06/10 02:46:26;;;;;;;0.90;0.90;;;;;;;;;;6292757;28;20266;-71
2023/06/10 02:49:31;;;;;;;1.65;1.00;;;;;;;;;;6291892;28;20294;-71
2023/06/10 02:52:38;;;;;;;0.90;0.90;;;;;;;;;;6293426;28;20471;-72
2023/06/10 02:55:46;;;;;;;0.98;0.98;;;;;;;;;;6291811;28;20574;-71
2023/06/10 02:58:53;;;;;;;0.90;0.90;;;;;;;;;;6291909;28;20293;-70
2023/06/10 03:02:01;;;;;;;0.70;0.70;;;;;;;;;;6285574;28;20290;-70
2023/06/10 03:05:12;;;;;;;0.95;0.80;;;;;;;;;;6288850;28;20294;-70
2023/06/10 03:08:22;;;;;;;0.75;0.75;;;;;;;;;;6283106;28;20290;-71
2023/06/10 03:11:29;;;;;;;1.55;0.98;;;;;;;;;;6292290;28;20267;-70
2023/06/10 03:14:35;;;;;;;0.98;0.75;;;;;;;;;;6291400;28;20482;-71
2023/06/10 03:17:40;;;;;;;2.40;0.88;;;;;;;;;;6290720;28;20262;-70
2023/06/10 03:20:45;;;;;;;0.90;0.90;;;;;;;;;;6292095;28;20258;-70
2023/06/10 03:23:51;;;;;;;0.85;0.85;;;;;;;;;;6291382;28;20601;-71
2023/06/10 03:26:58;;;;;;;0.90;0.90;;;;;;;;;;6291681;28;20262;-71
2023/06/10 03:30:04;;;;;;;0.90;0.90;;;;;;;;;;6291284;28;20290;-71
2023/06/10 03:33:13;;;;;;;2.17;1.00;;;;;;;;;;6291382;28;20572;-70
2023/06/10 03:36:20;;;;;;;0.90;0.90;;;;;;;;;;6283541;28;20572;-72
2023/06/10 03:39:28;;;;;;;1.13;1.13;;;;;;;;;;6284319;28;20575;-71
2023/06/10 03:42:36;;;;;;;4.05;0.98;;;;;;;;;;6266536;28;20267;-71
2023/06/10 03:45:43;;;;;;;0.80;0.80;;;;;;;;;;6266788;28;20570;-69
2023/06/10 03:48:49;;;;;;;0.80;0.80;;;;;;;;;;6266395;28;20310;-71
2023/06/10 03:51:54;;;;;;;0.80;0.77;;;;;;;;;;6284670;28;20583;-70
2023/06/10 03:55:00;;;;;;;0.80;0.80;;;;;;;;;;6266185;28;20291;-70
2023/06/10 03:58:07;;;;;;;0.90;0.90;;;;;;;;;;6282974;28;20278;-72
2023/06/10 04:01:13;;;;;;;0.90;0.90;;;;;;;;;;6283996;28;20263;-71
2023/06/10 04:04:18;;;;;;;0.90;0.90;;;;;;;;;;6257478;28;20300;-71
2023/06/10 04:07:24;;;;;;;0.80;0.80;;;;;;;;;;6257733;28;20268;-71
2023/06/10 04:10:31;;;;;;;0.90;0.90;;;;;;;;;;6266893;28;20263;-72
2023/06/10 04:13:39;;;;;;;2.03;1.00;;;;;;;;;;6282610;28;20568;-70
2023/06/10 04:16:45;;;;;;;0.80;0.80;;;;;;;;;;6286818;28;20267;-71
2023/06/10 04:19:50;;;;;;;1.00;1.00;;;;;;;;;;6286918;28;20314;-71
2023/06/10 04:22:56;;;;;;;0.80;0.80;;;;;;;;;;6287012;28;20294;-71
2023/06/10 04:26:01;;;;;;;2.63;0.73;;;;;;;;;;6287821;28;20294;-71
2023/06/10 04:29:08;;;;;;;0.80;0.80;;;;;;;;;;6286723;28;20303;-72
2023/06/10 04:32:14;;;;;;;0.90;0.90;;;;;;;;;;6287202;28;20263;-71
2023/06/10 04:35:19;;;;;;;0.98;0.98;;;;;;;;;;6286829;28;20299;-71
2023/06/10 04:38:26;;;;;;;0.95;0.95;;;;;;;;;;6286701;28;20295;-71
2023/06/10 04:41:31;;;;;;;0.80;0.80;;;;;;;;;;6287300;28;20278;-70
2023/06/10 04:44:38;;;;;;;1.00;1.00;;;;;;;;;;6286575;28;20302;-71
2023/06/10 04:47:45;;;;;;;1.13;1.13;;;;;;;;;;6286245;28;20295;-70
2023/06/10 04:50:50;;;;;;;0.82;0.82;;;;;;;;;;6287829;28;20259;-70
2023/06/10 04:53:55;;;;;;;0.98;0.98;;;;;;;;;;6287478;28;20303;-70
2023/06/10 04:57:01;;;;;;;2.63;1.10;;;;;;;;;;6287681;28;20272;-70
2023/06/10 05:00:09;;;;;;;1.15;1.10;;;;;;;;;;6287262;28;20306;-71
2023/06/10 05:03:14;;;;;;;1.00;1.00;;;;;;;;;;6300144;28;20290;-70
2023/06/10 05:06:19;;;;;;;1.25;1.15;;;;;;;;;;6312764;28;20270;-71
2023/06/10 05:09:25;;;;;;;1.55;1.55;;;;;;;;;;6311849;28;20302;-70
2023/06/10 05:12:31;;;;;;;1.60;1.60;;;;;;;;;;6303406;28;20263;-72
2023/06/10 05:15:38;;;;;;;1.30;1.30;;;;;;;;;;6311864;28;20290;-70
2023/06/10 05:18:43;;;;;;;1.15;1.15;;;;;;;;;;6311713;28;20286;-71
2023/06/10 05:21:48;;;;;;;1.00;1.00;;;;;;;;;;6311710;28;20262;-72
2023/06/10 05:24:53;;;;;;;;;;;;;;;;;;6312538;28;20139;-73
2023/06/10 05:27:58;;;;;;;;;;;;;;;;;;6310927;28;19983;-70
2023/06/10 05:31:05;;;;;;;1.00;1.00;;;;;;;;;;6311904;28;20276;-70
2023/06/10 05:34:11;;;;;;;2.97;0.80;;;;;;;;;;6310919;28;20422;-70
2023/06/10 05:37:16;;;;;;;2.72;1.05;;;;;;;;;;6311841;28;20551;-71
2023/06/10 05:40:21;;;;;;;0.82;0.80;;;;;;;;;;6311302;28;20551;-71
2023/06/10 05:43:27;;;;;;;0.93;0.93;;;;;;;;;;6310943;28;20606;-70
2023/06/10 05:46:33;;;;;;;0.98;0.98;;;;;;;;;;6311890;28;20266;-71
2023/06/10 05:49:39;;;;;;;1.70;0.88;;;;;;;;;;6311135;28;20325;-70
2023/06/10 05:52:44;;;;;;;3.03;1.17;;;;;;;;;;6311155;28;20590;-70
2023/06/10 05:55:49;;;;;;;1.00;1.00;;;;;;;;;;6311575;28;20282;-70
2023/06/10 05:58:54;;;;;;;2.90;1.13;;;;;;;;;;6310958;28;20298;-71
2023/06/10 06:02:01;;;;;;;0.80;0.80;;;;;;;;;;6311160;28;20298;-70
2023/06/10 06:05:07;;;;;;;2.75;0.90;;;;;;;;;;6310459;28;20302;-71
2023/06/10 06:08:17;;;;;;;1.00;1.00;;;;;;;;;;6310332;28;20287;-71
2023/06/10 06:11:22;;;;;;;1.65;0.80;;;;;;;;;;6310977;28;20559;-71
2023/06/10 06:14:27;;;;;;;0.90;0.90;;;;;;;;;;6310368;28;20325;-71
2023/06/10 06:17:34;;;;;;;0.90;0.90;;;;;;;;;;6310232;28;20270;-71
2023/06/10 06:20:39;;;;;;;2.05;0.90;;;;;;;;;;6311037;28;20457;-71
2023/06/10 06:23:44;;;;;;;1.00;1.00;;;;;;;;;;6310368;28;20287;-71
2023/06/10 06:26:49;;;;;;;1.75;1.08;;;;;;;;;;6310903;28;20270;-70
2023/06/10 06:29:55;;;;;;;6.13;0.90;;;;;;;;;;6310276;28;20290;-70
2023/06/10 06:33:02;;;;;;;0.80;0.80;;;;;;;;;;6310234;28;20291;-71
2023/06/10 06:36:09;;;;;;;1.33;1.20;;;;;;;;;;6310464;28;20282;-72
2023/06/10 06:39:14;;;;;;;1.30;1.30;;;;;;;;;;6308689;28;20294;-71
2023/06/10 06:42:20;;;;;;;2.50;1.95;;;;;;;;;;6292642;28;20271;-72
2023/06/10 06:45:37;;;;;;;2.45;1.50;;;;;;;;;;6291393;28;20416;-70
2023/06/10 06:48:44;;;;;;;1.17;1.17;;;;;;;;;;6309188;28;20310;-71
2023/06/10 06:51:49;;;;;;;0.90;0.90;;;;;;;;;;6309722;28;20263;-71
2023/06/10 06:54:55;;;;;;;1.73;0.80;;;;;;;;;;6309520;28;20493;-70
2023/06/10 06:58:03;;;;;;;1.23;1.10;;;;;;;;;;6308852;28;20294;-70
2023/06/10 07:01:11;;;;;;;0.75;0.75;;;;;;;;;;6310194;28;20262;-71
2023/06/10 07:04:19;;;;;;;1.27;1.02;;;;;;;;;;6282739;28;20299;-72
2023/06/10 07:07:24;;;;;;;1.88;0.80;;;;;;;;;;6283450;28;20572;-70
2023/06/10 07:10:30;;;;;;;1.50;0.93;;;;;;;;;;6275700;28;20264;-73
2023/06/10 07:13:35;;;;;;;0.88;0.88;;;;;;;;;;6260325;28;20299;-72
2023/06/10 07:16:41;;;;;;;1.17;0.80;;;;;;;;;;6260087;28;20292;-70
2023/06/10 07:19:47;;;;;;;4.38;0.80;;;;;;;;;;6259909;28;20291;-71
2023/06/10 07:22:53;;;;;;;0.98;0.95;;;;;;;;;;6259767;28;20307;-71
2023/06/10 07:25:58;;;;;;;0.98;0.98;;;;;;;;;;6258361;28;20271;-71
2023/06/10 07:29:03;;;;;;;0.90;0.90;;;;;;;;;;6259721;28;20296;-71
2023/06/10 07:32:09;;;;;;;0.90;0.90;;;;;;;;;;6275174;28;20267;-71
2023/06/10 07:35:16;;;;;;;2.85;1.00;;;;;;;;;;6259404;28;20295;-70
2023/06/10 07:38:21;;;;;;;1.02;0.90;;;;;;;;;;6259632;28;20291;-71
2023/06/10 07:41:26;;;;;;;0.70;0.70;;;;;;;;;;6259789;28;20263;-71
2023/06/10 07:44:31;;;;;;;0.90;0.90;;;;;;;;;;6257960;28;20287;-71
2023/06/10 07:47:37;;;;;;;1.65;0.77;;;;;;;;;;6274466;28;20271;-71
2023/06/10 07:50:44;;;;;;;0.80;0.80;;;;;;;;;;6261963;28;20276;-71
2023/06/10 07:53:49;;;;;;;0.75;0.75;;;;;;;;;;6264620;28;20436;-70
2023/06/10 07:56:54;;;;;;;0.80;0.80;;;;;;;;;;6264756;28;20575;-71
2023/06/10 08:00:00;;;;;;;1.05;0.75;;;;;;;;;;6264327;28;20307;-71
2023/06/10 08:03:05;;;;;;;0.70;0.70;;;;;;;;;;6275352;28;20387;-72
2023/06/10 08:06:12;;;;;;;2.70;0.70;;;;;;;;;;6289272;28;20271;-71
2023/06/10 08:09:19;;;;;;;2.50;0.80;;;;;;;;;;6288713;28;20298;-71
2023/06/10 08:12:24;;;;;;;0.90;0.90;;;;;;;;;;6288735;28;20264;-71
2023/06/10 08:15:29;;;;;;;0.80;0.80;;;;;;;;;;6287947;28;20267;-71
2023/06/10 08:18:35;;;;;;;0.82;0.82;;;;;;;;;;6288455;28;20295;-72
2023/06/10 08:21:41;;;;;;;1.27;0.90;;;;;;;;;;6289428;28;20289;-72
2023/06/10 08:24:46;;;;;;;0.60;0.60;;;;;;;;;;6288092;28;20621;-72
2023/06/10 08:27:56;;;;;;;0.85;0.85;;;;;;;;;;6288615;28;20294;-72
2023/06/10 08:31:01;;;;;;;0.70;0.70;;;;;;;;;;6289004;28;20275;-72
2023/06/10 08:34:06;;;;;;;0.85;0.85;;;;;;;;;;6288243;28;20595;-70
2023/06/10 08:37:13;;;;;;;0.80;0.80;;;;;;;;;;6288337;28;20284;-73
2023/06/10 08:40:18;;;;;;;5.63;0.80;;;;;;;;;;6288454;28;20302;-74
2023/06/10 08:43:30;;;;;;;0.75;0.75;;;;;;;;;;6287904;28;20313;-72
2023/06/10 08:46:35;;;;;;;0.85;0.85;;;;;;;;;;6287858;28;20460;-73
2023/06/10 08:49:44;;;;;;;1.33;1.10;;;;;;;;;;6288043;28;20303;-73
2023/06/10 08:52:55;;;;;;;0.77;0.77;;;;;;;;;;6287668;28;20326;-73
2023/06/10 08:56:02;;;;;;;0.70;0.70;;;;;;;;;;6287791;28;20375;-72
2023/06/10 08:59:08;;;;;;;0.70;0.70;;;;;;;;;;6287306;28;20291;-72
2023/06/10 09:02:13;;;;;;;0.75;0.65;;;;;;;;;;6290660;28;20294;-71
2023/06/10 09:05:18;;;;;;;0.85;0.85;;;;;;;;;;6311661;28;20290;-72
2023/06/10 09:08:26;;;;;;;0.95;0.95;;;;;;;;;;6292866;28;20294;-70
2023/06/10 09:11:31;;;;;;;0.73;0.73;;;;;;;;;;6311970;28;20446;-71
2023/06/10 09:14:36;;;;;;;1.00;0.77;;;;;;;;;;6311557;28;20310;-71
2023/06/10 09:17:41;;;;;;;2.17;1.00;;;;;;;;;;6310967;28;20602;-71
2023/06/10 09:20:47;;;;;;;0.90;0.90;;;;;;;;;;6311996;28;20271;-72
2023/06/10 09:23:53;;;;;;;1.75;1.20;;;;;;;;;;6311296;28;20466;-70
2023/06/10 09:27:05;;;;;;;1.25;1.00;;;;;;;;;;6312315;28;20290;-72
2023/06/10 09:30:12;;;;;;;2.25;0.95;;;;;;;;;;6293630;28;20459;-71
2023/06/10 09:33:18;;;;;;;4.80;0.90;;;;;;;;;;6312049;28;20295;-70
2023/06/10 09:36:24;;;;;;;0.75;0.75;;;;;;;;;;6311352;28;20452;-70
2023/06/10 09:39:31;;;;;;;6.75;1.02;;;;;;;;;;6311283;28;20294;-72
2023/06/10 09:42:37;;;;;;;1.00;0.88;;;;;;;;;;6311111;28;20559;-73
2023/06/10 09:45:43;;;;;;;4.97;1.05;;;;;;;;;;6311917;28;20271;-71
2023/06/10 09:48:49;;;;;;;0.80;0.80;;;;;;;;;;6311038;28;20299;-72
2023/06/10 09:51:55;;;;;;;1.00;0.70;;;;;;;;;;6311773;28;20266;-71
2023/06/10 09:55:03;;;;;;;0.65;0.65;;;;;;;;;;6310621;28;20302;-72
2023/06/10 09:58:09;;;;;;;0.60;0.60;;;;;;;;;;6310826;28;20393;-72
2023/06/10 10:01:16;;;;;;;1.40;0.80;;;;;;;;;;6310777;28;20306;-72
2023/06/10 10:04:25;;;;;;;0.90;0.90;;;;;;;;;;6310268;28;20480;-73
2023/06/10 10:07:30;;;;;;;2.70;0.85;;;;;;;;;;6309992;28;20270;-73
2023/06/10 10:10:37;;;;;;;0.80;0.80;;;;;;;;;;6310328;28;20263;-71
2023/06/10 10:13:59;;;;;;;1.08;1.08;;;;;;;;;;6309210;28;20314;-71
2023/06/10 10:17:12;;;;;;;1.20;1.20;;;;;;;;;;6311013;28;20290;-72
2023/06/10 10:20:22;;;;;;;3.25;1.45;;;;;;;;;;6310519;28;20294;-73
2023/06/10 10:23:33;;;;;;;2.70;0.90;;;;;;;;;;6313062;28;20603;-72
2023/06/10 10:26:40;;;;;;;1.02;0.90;;;;;;;;;;6310899;28;20267;-72
2023/06/10 10:29:48;;;;;;;10.13;1.75;;;;;;;;;;6310066;28;20299;-71
2023/06/10 10:32:58;;;;;;;0.90;0.90;;;;;;;;;;6310035;28;20580;-71
2023/06/10 10:36:03;;;;;;;0.80;0.80;;;;;;;;;;6310487;28;20266;-70
2023/06/10 10:39:08;;;;;;;0.90;0.90;;;;;;;;;;6309373;28;20465;-72
2023/06/10 10:42:16;;;;;;;0.93;0.93;;;;;;;;;;6309589;28;20275;-73
2023/06/10 10:45:23;;;;;;;1.92;1.05;;;;;;;;;;6309806;28;20539;-70
2023/06/10 10:48:33;;;;;;;0.95;0.93;;;;;;;;;;6309466;28;20486;-71
2023/06/10 10:51:38;;;;;;;0.93;0.93;;;;;;;;;;6291788;28;20354;-71
2023/06/10 10:54:46;;;;;;;0.60;0.60;;;;;;;;;;6309876;28;20306;-72
2023/06/10 10:58:00;;;;;;;0.77;0.77;;;;;;;;;;6309330;28;20302;-70
2023/06/10 11:01:23;;;;;;;0.98;0.98;;;;;;;;;;6310105;28;20401;-70
2023/06/10 11:04:28;;;;;;;0.82;0.82;;;;;;;;;;6308700;28;20405;-70
2023/06/10 11:07:34;;;;;;;1.30;0.90;;;;;;;;;;6309143;28;20274;-70
2023/06/10 11:10:40;;;;;;;0.90;0.90;;;;;;;;;;6309179;28;20258;-71
2023/06/10 11:14:00;;;;;;;0.80;0.80;;;;;;;;;;6309473;28;20581;-72
2023/06/10 11:17:20;;;;;;;1.10;1.00;;;;;;;;;;6309638;28;20266;-72
2023/06/10 11:20:43;;;;;;;1.00;1.00;;;;;;;;;;6308416;28;20275;-72
2023/06/10 11:23:50;;;;;;;3.60;0.98;;;;;;;;;;6309280;28;20294;-71
2023/06/10 11:26:55;;;;;;;3.42;0.88;;;;;;;;;;6308809;28;20266;-71
2023/06/10 11:30:20;;;;;;;0.90;0.90;;;;;;;;;;6309424;28;20298;-72
2023/06/10 11:33:26;;;;;;;3.80;0.98;;;;;;;;;;6309258;28;20299;-72
2023/06/10 11:36:32;;;;;;;1.00;1.00;;;;;;;;;;6291558;28;20263;-72
2023/06/10 11:39:37;;;;;;;0.90;0.90;;;;;;;;;;6309303;28;20308;-71
2023/06/10 11:42:43;;;;;;;3.35;1.00;;;;;;;;;;6308726;28;20270;-71
2023/06/10 11:45:54;;;;;;;1.60;1.10;;;;;;;;;;6309176;28;20266;-72
2023/06/10 11:49:02;;;;;;;0.88;0.88;;;;;;;;;;6309420;28;20541;-73
2023/06/10 11:52:07;;;;;;;1.00;1.00;;;;;;;;;;6292308;28;20282;-72
2023/06/10 11:55:13;;;;;;;1.95;1.17;;;;;;;;;;6308599;28;20286;-71
2023/06/10 11:58:21;;;;;;;3.20;1.00;;;;;;;;;;6291817;28;20294;-71
2023/06/10 12:01:28;;;;;;;2.92;1.10;;;;;;;;;;6309172;28;20274;-72
2023/06/10 12:04:34;;;;;;;1.00;1.00;;;;;;;;;;6303356;28;20298;-72
2023/06/10 12:07:39;;;;;;;1.63;0.82;;;;;;;;;;6308808;28;20263;-72
2023/06/10 12:10:45;;;;;;;3.92;1.00;;;;;;;;;;6308994;28;20267;-73
2023/06/10 12:13:50;;;;;;;1.17;1.17;;;;;;;;;;6309941;28;20294;-71
2023/06/10 12:16:59;;;;;;;1.52;1.10;;;;;;;;;;6309597;28;20266;-73
2023/06/10 12:20:06;;;;;;;1.23;0.80;;;;;;;;;;6308659;28;20587;-71
2023/06/10 12:23:15;;;;;;;1.35;0.80;;;;;;;;;;6308685;28;20286;-72
2023/06/10 12:26:20;;;;;;;0.90;0.90;;;;;;;;;;6309068;28;20266;-72
2023/06/10 12:29:26;;;;;;;1.02;0.93;;;;;;;;;;6308504;28;20302;-72
2023/06/10 12:32:40;;;;;;;0.85;0.85;;;;;;;;;;6308697;28;20334;-71
2023/06/10 12:35:50;;;;;;;2.75;0.95;;;;;;;;;;6308882;28;20271;-73
2023/06/10 12:38:55;;;;;;;1.00;1.00;;;;;;;;;;6312197;28;20298;-72
2023/06/10 12:42:01;;;;;;;1.00;1.00;;;;;;;;;;6312194;28;20286;-71
2023/06/10 12:45:09;;;;;;;1.02;0.95;;;;;;;;;;6312805;28;20603;-72
2023/06/10 12:48:21;;;;;;;0.93;0.93;;;;;;;;;;6312845;28;20298;-73
2023/06/10 12:51:27;;;;;;;0.80;0.80;;;;;;;;;;6313163;28;20504;-72
2023/06/10 12:54:32;;;;;;;2.08;0.90;;;;;;;;;;6312486;28;20299;-71
2023/06/10 12:57:39;;;;;;;5.35;1.40;;;;;;;;;;6312017;28;20267;-72
2023/06/10 13:00:44;;;;;;;1.52;1.20;;;;;;;;;;6295271;28;20290;-72
2023/06/10 13:03:51;;;;;;;4.55;1.27;;;;;;;;;;6311879;28;20286;-73
2023/06/10 13:06:56;;;;;;;2.78;0.90;;;;;;;;;;6312464;28;20450;-73
2023/06/10 13:10:02;;;;;;;0.80;0.80;;;;;;;;;;6311812;28;20294;-71
2023/06/10 13:13:09;;;;;;;0.90;0.90;;;;;;;;;;6311924;28;20295;-72
2023/06/10 13:16:14;;;;;;;2.45;1.17;;;;;;;;;;6312921;28;20298;-73
2023/06/10 13:19:22;;;;;;;0.85;0.80;;;;;;;;;;6311781;28;20586;-72
2023/06/10 13:22:28;;;;;;;2.30;1.00;;;;;;;;;;6293892;28;20583;-72
2023/06/10 13:25:33;;;;;;;4.15;1.20;;;;;;;;;;6294443;28;20266;-72
2023/06/10 13:28:38;;;;;;;4.93;1.33;;;;;;;;;;6311977;28;20286;-72
2023/06/10 13:31:44;;;;;;;2.47;0.98;;;;;;;;;;6312003;28;20271;-72
2023/06/10 13:34:51;;;;;;;3.17;0.93;;;;;;;;;;6311723;28;20290;-72
2023/06/10 13:37:56;;;;;;;0.90;0.90;;;;;;;;;;6311410;28;20369;-71
2023/06/10 13:41:01;;;;;;;1.02;1.00;;;;;;;;;;6312183;28;20290;-72
2023/06/10 13:44:10;;;;;;;1.95;0.82;;;;;;;;;;6311253;28;20291;-72
2023/06/10 13:47:16;;;;;;;0.90;0.90;;;;;;;;;;6293624;28;20275;-71
2023/06/10 13:50:22;;;;;;;1.23;1.15;;;;;;;;;;6311251;28;20298;-72
2023/06/10 13:53:28;;;;;;;0.90;0.90;;;;;;;;;;6310545;28;20484;-71
2023/06/10 13:56:37;;;;;;;1.95;0.80;;;;;;;;;;6311709;28;20266;-72
2023/06/10 13:59:43;;;;;;;4.35;1.00;;;;;;;;;;6310750;28;20294;-73
2023/06/10 14:02:48;;;;;;;1.00;1.00;;;;;;;;;;6310357;28;20294;-73
2023/06/10 14:05:55;;;;;;;1.23;1.13;;;;;;;;;;6293010;28;20262;-71
2023/06/10 14:09:00;;;;;;;1.05;1.05;;;;;;;;;;6310464;28;20294;-72
2023/06/10 14:12:06;;;;;;;2.65;1.30;;;;;;;;;;6311163;28;20266;-71
2023/06/10 14:15:12;;;;;;;3.45;1.00;;;;;;;;;;6310697;28;20298;-72
2023/06/10 14:18:17;;;;;;;0.90;0.90;;;;;;;;;;6310666;28;20306;-72
2023/06/10 14:21:24;;;;;;;1.75;1.27;;;;;;;;;;6310883;28;20466;-72
2023/06/10 14:24:29;;;;;;;0.90;0.88;;;;;;;;;;6310300;28;20602;-72
2023/06/10 14:27:36;;;;;;;3.20;1.27;;;;;;;;;;6310109;28;20262;-73
2023/06/10 14:30:41;;;;;;;1.20;1.20;;;;;;;;;;6310685;28;20524;-72
2023/06/10 14:33:46;;;;;;;1.10;1.10;;;;;;;;;;6310001;28;20622;-73
2023/06/10 14:36:53;;;;;;;0.98;0.98;;;;;;;;;;6309933;28;20266;-71
2023/06/10 14:39:58;;;;;;;0.93;0.93;;;;;;;;;;6309692;28;20306;-72
2023/06/10 14:43:09;;;;;;;1.83;0.95;;;;;;;;;;6310095;28;20290;-73
2023/06/10 14:46:14;;;;;;;3.40;0.80;;;;;;;;;;6310285;28;20646;-72
2023/06/10 14:49:20;;;;;;;0.95;0.85;;;;;;;;;;6309893;28;20290;-73
2023/06/10 14:52:26;;;;;;;0.80;0.80;;;;;;;;;;6310751;28;20383;-72
2023/06/10 14:55:31;;;;;;;1.05;0.93;;;;;;;;;;6309261;28;20270;-72
2023/06/10 14:58:36;;;;;;;1.75;1.00;;;;;;;;;;6310199;28;20326;-72
2023/06/10 15:01:42;;;;;;;1.00;1.00;;;;;;;;;;6306608;28;20294;-71
2023/06/10 15:04:47;;;;;;;1.10;1.10;;;;;;;;;;6279990;28;20295;-72
2023/06/10 15:07:54;;;;;;;0.80;0.80;;;;;;;;;;6284711;28;20294;-72
2023/06/10 15:11:00;;;;;;;1.05;1.05;;;;;;;;;;6285073;28;20407;-73
2023/06/10 15:14:06;;;;;;;0.88;0.88;;;;;;;;;;6284790;28;20311;-72
2023/06/10 15:17:11;;;;;;;0.80;0.80;;;;;;;;;;6285205;28;20268;-72
2023/06/10 15:20:17;;;;;;;1.10;1.10;;;;;;;;;;6284651;28;20600;-71
2023/06/10 15:23:23;;;;;;;1.38;1.00;;;;;;;;;;6284205;28;20455;-73
2023/06/10 15:26:28;;;;;;;0.90;0.90;;;;;;;;;;6284569;28;20568;-72
2023/06/10 15:29:34;;;;;;;1.42;1.20;;;;;;;;;;6284402;28;20292;-72
2023/06/10 15:32:39;;;;;;;1.48;1.38;;;;;;;;;;6283896;28;20267;-72
2023/06/10 15:35:45;;;;;;;2.08;1.10;;;;;;;;;;6284658;28;20504;-71
2023/06/10 15:38:51;;;;;;;1.48;1.02;;;;;;;;;;6282958;28;20291;-72
2023/06/10 15:42:01;;;;;;;1.27;1.27;;;;;;;;;;6284329;28;20287;-71
2023/06/10 15:45:07;;;;;;;1.15;1.15;;;;;;;;;;6284379;28;20535;-72
2023/06/10 15:48:12;;;;;;;1.02;1.02;;;;;;;;;;6284073;28;20290;-71
2023/06/10 15:51:18;;;;;;;1.30;1.30;;;;;;;;;;6284025;28;20274;-72
2023/06/10 15:54:24;;;;;;;1.67;1.25;;;;;;;;;;6284544;28;20346;-73
2023/06/10 15:57:29;;;;;;;1.45;1.35;;;;;;;;;;6283720;28;20267;-72
2023/06/10 16:00:34;;;;;;;1.00;1.00;;;;;;;;;;6284465;28;20283;-72
2023/06/10 16:03:40;;;;;;;1.27;1.20;;;;;;;;;;6299416;28;20294;-72
2023/06/10 16:06:45;;;;;;;2.75;1.00;;;;;;;;;;6309339;28;20270;-72
2023/06/10 16:09:52;;;;;;;1.05;1.05;;;;;;;;;;6309115;28;20294;-72
2023/06/10 16:12:57;;;;;;;1.20;1.20;;;;;;;;;;6312226;28;20564;-72
2023/06/10 16:16:02;;;;;;;0.90;0.90;;;;;;;;;;6296238;28;20270;-72
2023/06/10 16:19:07;;;;;;;1.88;1.10;;;;;;;;;;6313156;28;20294;-72
2023/06/10 16:22:13;;;;;;;3.33;1.25;;;;;;;;;;6313428;28;20291;-72
2023/06/10 16:25:19;;;;;;;1.70;0.90;;;;;;;;;;6312933;28;20467;-72
2023/06/10 16:28:25;;;;;;;3.60;1.20;;;;;;;;;;6313363;28;20290;-72
2023/06/10 16:31:30;;;;;;;1.02;1.00;;;;;;;;;;6313903;28;20266;-72
2023/06/10 16:34:35;;;;;;;2.58;2.30;;;;;;;;;;6313033;28;20290;-72
2023/06/10 16:37:40;;;;;;;4.30;1.30;;;;;;;;;;6313037;28;20274;-72
2023/06/10 16:40:47;;;;;;;2.33;1.50;;;;;;;;;;6313466;28;20582;-72
2023/06/10 16:43:52;;;;;;;1.17;0.95;;;;;;;;;;6312688;28;20295;-72
2023/06/10 16:46:57;;;;;;;0.90;0.90;;;;;;;;;;6312577;28;20366;-71
2023/06/10 16:50:03;;;;;;;1.58;1.20;;;;;;;;;;6312676;28;20299;-72
2023/06/10 16:53:08;;;;;;;1.70;1.58;;;;;;;;;;6312629;28;20294;-72
2023/06/10 16:56:15;;;;;;;12.75;1.80;;;;;;;;;;6312707;28;20447;-72
2023/06/10 16:59:20;;;;;;;1.80;1.75;;;;;;;;;;6312276;28;20294;-71
2023/06/10 17:02:26;;;;;;;1.80;1.80;;;;;;;;;;6311361;28;20328;-73
2023/06/10 17:05:31;;;;;;;1.40;1.40;;;;;;;;;;6311748;28;20262;-73
2023/06/10 17:08:37;;;;;;;1.95;1.85;;;;;;;;;;6294940;28;20295;-72
2023/06/10 17:11:43;;;;;;;1.77;1.77;;;;;;;;;;6312810;28;20495;-72
2023/06/10 17:14:49;;;;;;;1.50;1.50;;;;;;;;;;6312256;28;20591;-71
2023/06/10 17:17:54;;;;;;;3.10;1.05;;;;;;;;;;6312197;28;20286;-73
2023/06/10 17:20:59;;;;;;;1.20;1.20;;;;;;;;;;6312368;28;20493;-72
2023/06/10 17:24:05;;;;;;;1.10;1.10;;;;;;;;;;6311004;28;20295;-73
2023/06/10 17:27:13;;;;;;;1.80;1.80;;;;;;;;;;6312412;28;20543;-73
2023/06/10 17:30:18;;;;;;;2.65;1.40;;;;;;;;;;6312172;28;20594;-73
2023/06/10 17:33:24;;;;;;;1.33;1.30;;;;;;;;;;6311468;28;20294;-73
2023/06/10 17:36:29;;;;;;;1.67;1.67;;;;;;;;;;6312361;28;20268;-72
2023/06/10 17:39:35;;;;;;;3.10;2.90;;;;;;;;;;6311895;28;20314;-72
2023/06/10 17:42:42;;;;;;;2.10;1.58;;;;;;;;;;6311625;28;20282;-71
2023/06/10 17:45:48;;;;;;;5.07;1.77;;;;;;;;;;6311934;28;20456;-71
2023/06/10 17:48:53;;;;;;;2.47;1.60;;;;;;;;;;6311501;28;20299;-72
2023/06/10 17:51:58;;;;;;;1.95;1.30;;;;;;;;;;6311293;28;20456;-70
2023/06/10 17:55:04;;;;;;;1.60;1.52;;;;;;;;;;6293320;28;20290;-71
2023/06/10 17:58:12;;;;;;;1.83;1.83;;;;;;;;;;6311644;28;20295;-72
2023/06/10 18:01:17;;;;;;;2.47;1.60;;;;;;;;;;6311224;28;20266;-73
2023/06/10 18:04:23;;;;;;;2.45;1.50;;;;;;;;;;6293049;28;20294;-72
2023/06/10 18:07:28;;;;;;;2.50;1.30;;;;;;;;;;6311233;28;20266;-71
2023/06/10 18:10:33;;;;;;;1.30;1.20;;;;;;;;;;6310578;28;20279;-71
2023/06/10 18:13:40;;;;;;;1.58;1.48;;;;;;;;;;6310777;28;20291;-72
2023/06/10 18:16:45;;;;;;;1.30;1.30;;;;;;;;;;6310959;28;20620;-75
2023/06/10 18:19:51;;;;;;;1.20;1.20;;;;;;;;;;6310842;28;20294;-72
2023/06/10 18:22:56;;;;;;;1.30;1.20;;;;;;;;;;6310764;28;20594;-72
2023/06/10 18:26:01;;;;;;;1.65;1.55;;;;;;;;;;6293578;28;20270;-72
2023/06/10 18:29:08;;;;;;;1.00;1.00;;;;;;;;;;6310188;28;20473;-73
2023/06/10 18:32:13;;;;;;;1.30;1.20;;;;;;;;;;6311229;28;20274;-72
2023/06/10 18:35:19;;;;;;;1.65;1.40;;;;;;;;;;6310476;28;20290;-72
2023/06/10 18:38:24;;;;;;;4.68;1.10;;;;;;;;;;6309881;28;20282;-74